Time;durP1;ratioP1;P1;durP2;ratioP2;P2;SDS_P1;SDS_P2;PMS_P1;PMS_P2;Temp;Humidity;BMP_temperature;BMP_pressure;BME280_temperature;BME280_humidity;BME280_pressure;Samples;Min_cycle;Max_cycle;Signal;HPM_P1;HPM_P2
2021/03/05 00:00:35;;;;;;;3.75;1.10;;;;;;;-2.80;56.21;98491.28;5080455;28;20151;-49
2021/03/05 00:03:02;;;;;;;2.55;1.23;;;;;;;-2.83;56.90;98487.97;5066888;28;20044;-50
2021/03/05 00:05:28;;;;;;;2.45;1.20;;;;;;;-2.85;56.76;98498.53;5072550;28;20056;-51
2021/03/05 00:07:53;;;;;;;1.70;1.13;;;;;;;-2.90;57.06;98501.34;5074328;28;20036;-45
2021/03/05 00:10:25;;;;;;;1.92;1.10;;;;;;;-2.89;57.64;98492.56;5082650;28;20135;-46
2021/03/05 00:12:51;;;;;;;4.05;1.30;;;;;;;-2.95;57.63;98484.16;5059871;28;20091;-50
2021/03/05 00:15:17;;;;;;;1.50;0.95;;;;;;;-2.91;57.44;98493.56;5084894;28;20471;-53
2021/03/05 00:17:42;;;;;;;1.73;1.17;;;;;;;-2.93;57.11;98505.88;5067002;28;20028;-47
2021/03/05 00:20:10;;;;;;;4.55;1.35;;;;;;;-2.94;57.23;98493.69;5078688;28;20035;-53
2021/03/05 00:22:35;;;;;;;2.22;1.10;;;;;;;-2.97;57.92;98488.59;5070353;28;20105;-47
2021/03/05 00:25:01;;;;;;;1.75;1.23;;;;;;;-3.06;57.75;98487.25;5059622;28;20512;-52
2021/03/05 00:27:27;;;;;;;2.05;1.45;;;;;;;-3.05;57.51;98510.78;5056940;28;20076;-48
2021/03/05 00:29:52;;;;;;;2.00;1.17;;;;;;;-2.99;58.05;98512.25;5076731;28;20487;-49
2021/03/05 00:32:17;;;;;;;1.70;1.20;;;;;;;-3.03;57.91;98511.56;5062875;28;20037;-49
2021/03/05 00:34:43;;;;;;;2.47;1.58;;;;;;;-3.05;57.88;98510.78;5074433;28;20494;-50
2021/03/05 00:37:08;;;;;;;2.28;1.23;;;;;;;-3.11;58.45;98502.34;5069912;28;20404;-49
2021/03/05 00:39:34;;;;;;;4.03;1.40;;;;;;;-3.10;58.15;98499.66;5078688;28;20177;-53
2021/03/05 00:41:59;;;;;;;2.38;1.50;;;;;;;-3.12;58.61;98495.41;5059156;28;20029;-49
2021/03/05 00:44:25;;;;;;;2.28;1.20;;;;;;;-3.04;58.47;98515.09;5069605;28;20028;-52
2021/03/05 00:46:50;;;;;;;4.05;1.40;;;;;;;-3.07;58.76;98504.75;5072050;28;20044;-45
2021/03/05 00:49:16;;;;;;;3.20;1.40;;;;;;;-3.09;58.90;98501.38;5071132;28;20029;-51
2021/03/05 00:51:42;;;;;;;5.38;1.60;;;;;;;-3.08;59.34;98518.78;5084698;28;20032;-50
2021/03/05 00:54:08;;;;;;;4.55;1.48;;;;;;;-3.08;59.38;98512.66;5074595;28;20129;-51
2021/03/05 00:56:33;;;;;;;3.50;1.90;;;;;;;-3.11;59.07;98511.06;5074131;28;20170;-48
2021/03/05 00:58:58;;;;;;;3.15;1.70;;;;;;;-3.06;59.32;98516.06;5059784;28;20037;-53
2021/03/05 01:01:24;;;;;;;2.15;1.50;;;;;;;-3.08;59.15;98510.91;5081287;28;20107;-54
2021/03/05 01:03:50;;;;;;;7.13;1.98;;;;;;;-3.09;59.50;98522.31;5058822;28;20045;-50
2021/03/05 01:06:15;;;;;;;6.60;2.33;;;;;;;-3.09;59.55;98516.22;5062405;28;20460;-48
2021/03/05 01:08:41;;;;;;;3.90;1.80;;;;;;;-3.13;59.70;98526.00;5062989;28;20049;-49
2021/03/05 01:11:06;;;;;;;4.35;2.05;;;;;;;-3.17;59.78;98519.16;5060072;28;20404;-51
2021/03/05 01:13:32;;;;;;;5.55;2.30;;;;;;;-3.25;59.87;98516.06;5064226;28;20480;-47
2021/03/05 01:15:57;;;;;;;3.03;1.70;;;;;;;-3.14;59.96;98526.06;5058251;28;20037;-48
2021/03/05 01:18:23;;;;;;;3.53;1.92;;;;;;;-3.10;59.50;98531.09;5068034;28;20043;-58
2021/03/05 01:20:49;;;;;;;2.80;1.88;;;;;;;-3.05;59.89;98534.34;5073754;28;20024;-51
2021/03/05 01:23:16;;;;;;;2.78;1.80;;;;;;;-3.04;60.15;98538.66;5059670;28;20053;-52
2021/03/05 01:25:42;;;;;;;3.78;1.92;;;;;;;-3.18;60.27;98525.31;5085414;28;20454;-45
2021/03/05 01:28:07;;;;;;;4.20;1.92;;;;;;;-3.45;60.43;98473.31;5063194;28;20044;-49
2021/03/05 01:30:33;;;;;;;5.13;1.90;;;;;;;-2.93;59.97;98559.13;5077917;28;20066;-46
2021/03/05 01:32:59;;;;;;;3.97;1.98;;;;;;;-2.98;59.73;98528.81;5063856;28;20028;-47
2021/03/05 01:35:26;;;;;;;4.90;2.35;;;;;;;-2.76;60.09;98562.75;5079559;28;20527;-55
2021/03/05 01:37:52;;;;;;;3.58;1.92;;;;;;;-2.71;59.44;98552.88;5060148;28;20054;-47
2021/03/05 01:40:24;;;;;;;4.60;1.90;;;;;;;-2.64;59.81;98549.06;5078564;28;20036;-46
2021/03/05 01:42:49;;;;;;;3.78;2.20;;;;;;;-2.52;59.51;98557.28;5066050;28;20123;-46
2021/03/05 01:45:19;;;;;;;4.20;2.10;;;;;;;-2.42;58.86;98565.53;5082661;28;20071;-44
2021/03/05 01:47:46;;;;;;;4.60;2.40;;;;;;;-2.36;58.68;98554.75;5061319;28;20153;-45
2021/03/05 01:50:19;;;;;;;5.78;2.25;;;;;;;-2.27;59.02;98559.56;5064901;28;20063;-45
2021/03/05 01:52:52;;;;;;;5.97;2.88;;;;;;;-2.22;59.45;98554.94;5071957;28;20496;-50
2021/03/05 01:55:19;;;;;;;6.05;2.70;;;;;;;-2.05;58.69;98566.38;5086484;28;20403;-47
2021/03/05 01:57:45;;;;;;;6.72;3.45;;;;;;;-2.07;58.32;98558.56;5063193;28;20044;-49
2021/03/05 02:00:12;;;;;;;4.82;2.67;;;;;;;-1.88;58.49;98595.25;5075470;28;20560;-48
2021/03/05 02:02:38;;;;;;;9.48;2.58;;;;;;;-1.74;58.19;98575.34;5069062;28;20041;-50
2021/03/05 02:05:04;;;;;;;5.18;2.60;;;;;;;-1.79;57.72;98565.09;5081057;28;20044;-51
2021/03/05 02:07:30;;;;;;;4.75;2.58;;;;;;;-1.56;57.24;98591.94;5068760;28;20079;-48
2021/03/05 02:09:56;;;;;;;6.20;2.35;;;;;;;-1.52;57.22;98579.50;5064717;28;20059;-49
2021/03/05 02:12:21;;;;;;;3.92;2.15;;;;;;;-1.66;56.97;98572.31;5068144;28;20062;-53
2021/03/05 02:14:47;;;;;;;3.67;2.30;;;;;;;-1.65;56.77;98597.66;5075373;28;20043;-53
2021/03/05 02:17:26;;;;;;;3.50;2.40;;;;;;;-1.78;57.52;98598.28;5064015;28;20033;-50
2021/03/05 02:20:03;;;;;;;4.22;2.40;;;;;;;-1.93;57.75;98591.16;5063182;28;20043;-49
2021/03/05 02:22:50;;;;;;;4.55;2.40;;;;;;;-2.14;57.77;98604.38;5068656;28;20033;-49
2021/03/05 02:25:27;;;;;;;4.47;2.58;;;;;;;-2.23;58.22;98616.16;5050809;28;20037;-50
2021/03/05 02:27:59;;;;;;;3.53;2.50;;;;;;;-2.39;58.85;98615.22;5066048;28;20041;-56
2021/03/05 02:31:11;;;;;;;4.85;2.95;;;;;;;-2.53;59.28;98614.06;5072205;28;20036;-56
2021/03/05 02:33:48;;;;;;;3.90;2.72;;;;;;;-2.61;59.13;98613.59;5069994;28;20048;-47
2021/03/05 02:36:20;;;;;;;4.97;2.78;;;;;;;-2.74;58.84;98611.50;5078433;28;20044;-47
2021/03/05 02:39:03;;;;;;;4.78;2.33;;;;;;;-3.19;59.52;98555.03;5069960;28;20114;-52
2021/03/05 02:41:30;;;;;;;3.88;2.20;;;;;;;-2.88;58.99;98620.00;5074607;28;20055;-47
2021/03/05 02:43:57;;;;;;;4.75;2.47;;;;;;;-2.94;59.46;98622.91;5065823;28;20380;-52
2021/03/05 02:46:23;;;;;;;4.78;2.65;;;;;;;-2.98;59.25;98625.72;5075302;28;20326;-49
2021/03/05 02:48:50;;;;;;;4.60;2.60;;;;;;;-3.04;59.75;98619.84;5069221;28;20048;-48
2021/03/05 02:51:18;;;;;;;3.90;2.50;;;;;;;-3.06;59.95;98620.81;5056963;28;20040;-51
2021/03/05 02:53:46;;;;;;;3.83;2.50;;;;;;;-3.12;60.25;98614.09;5065196;28;20039;-48
2021/03/05 02:56:18;;;;;;;5.15;2.70;;;;;;;-3.15;60.59;98616.81;5077928;28;20036;-50
2021/03/05 02:58:47;;;;;;;3.83;2.50;;;;;;;-3.04;60.67;98632.94;5069801;28;20098;-51
2021/03/05 03:01:15;;;;;;;5.80;2.70;;;;;;;-3.08;60.40;98613.03;5068164;28;20542;-49
2021/03/05 03:03:41;;;;;;;3.85;2.38;;;;;;;-2.90;60.14;98634.06;5065396;28;20117;-48
2021/03/05 03:06:09;;;;;;;5.40;2.67;;;;;;;-2.80;59.91;98631.88;5081919;28;20044;-51
2021/03/05 03:08:36;;;;;;;5.35;2.40;;;;;;;-2.70;59.44;98634.94;5070721;28;20055;-50
2021/03/05 03:11:04;;;;;;;4.07;2.60;;;;;;;-3.10;59.44;98551.16;5076042;28;20171;-48
2021/03/05 03:13:32;;;;;;;6.90;2.85;;;;;;;-2.57;59.24;98628.22;5062027;28;20146;-50
2021/03/05 03:15:58;;;;;;;8.18;3.13;;;;;;;-2.57;58.98;98630.84;5053630;28;20041;-46
2021/03/05 03:18:25;;;;;;;5.25;2.78;;;;;;;-2.68;58.80;98623.50;5066670;28;20043;-50
2021/03/05 03:20:55;;;;;;;6.80;3.10;;;;;;;-2.62;58.53;98630.22;5067682;28;20058;-51
2021/03/05 03:23:21;;;;;;;3.92;2.70;;;;;;;-3.02;58.49;98564.75;5068650;28;20036;-47
2021/03/05 03:25:46;;;;;;;7.13;2.70;;;;;;;-2.86;58.89;98600.75;5054970;28;20547;-48
2021/03/05 03:28:12;;;;;;;5.47;2.80;;;;;;;-2.57;58.60;98649.19;5059249;28;20035;-49
2021/03/05 03:30:38;;;;;;;5.60;2.95;;;;;;;-2.56;58.70;98652.66;5076644;28;20031;-51
2021/03/05 03:33:04;;;;;;;5.63;3.10;;;;;;;-2.53;58.44;98649.88;5066317;28;20025;-48
2021/03/05 03:35:30;;;;;;;5.78;2.55;;;;;;;-2.48;57.98;98664.50;5068957;28;20044;-45
2021/03/05 03:37:56;;;;;;;5.68;2.75;;;;;;;-2.47;58.33;98655.72;5064926;28;20068;-52
2021/03/05 03:40:22;;;;;;;3.95;2.58;;;;;;;-2.48;58.07;98654.00;5074254;28;20123;-49
2021/03/05 03:42:49;;;;;;;6.18;2.92;;;;;;;-2.52;58.29;98649.84;5067640;28;20169;-49
2021/03/05 03:45:20;;;;;;;7.70;2.95;;;;;;;-2.49;58.32;98683.75;5082949;28;20052;-46
2021/03/05 03:47:47;;;;;;;8.10;2.47;;;;;;;-2.64;57.95;98650.41;5067278;28;20036;-49
2021/03/05 03:50:28;;;;;;;7.38;2.83;;;;;;;-2.49;58.54;98669.81;5079976;28;20148;-51
2021/03/05 03:52:57;;;;;;;7.25;2.75;;;;;;;-2.49;58.33;98672.44;5067218;28;20029;-48
2021/03/05 03:55:23;;;;;;;6.00;2.58;;;;;;;-2.57;57.92;98659.69;5059896;28;20373;-48
2021/03/05 03:57:52;;;;;;;6.65;2.72;;;;;;;-3.05;58.25;98571.00;5068228;28;20035;-50
2021/03/05 04:00:19;;;;;;;3.67;2.38;;;;;;;-2.41;58.41;98669.44;5080306;28;20055;-53
2021/03/05 04:02:49;;;;;;;4.80;2.60;;;;;;;-2.39;58.10;98665.00;5070898;28;20504;-50
2021/03/05 04:05:17;;;;;;;9.65;3.42;;;;;;;-2.37;58.13;98665.78;5055277;28;20044;-51
2021/03/05 04:07:46;;;;;;;5.20;2.58;;;;;;;-2.49;58.21;98647.06;5075667;28;20040;-52
2021/03/05 04:10:12;;;;;;;4.10;2.78;;;;;;;-2.28;58.04;98665.34;5083589;28;20472;-48
2021/03/05 04:12:38;;;;;;;6.10;2.60;;;;;;;-2.22;57.71;98665.06;5069697;28;20041;-48
2021/03/05 04:15:05;;;;;;;8.20;3.10;;;;;;;-2.15;57.75;98668.25;5081032;28;20035;-49
2021/03/05 04:17:31;;;;;;;5.70;3.13;;;;;;;-2.11;57.47;98666.34;5064512;28;20052;-50
2021/03/05 04:19:57;;;;;;;7.20;2.95;;;;;;;-2.13;58.17;98663.78;5081656;28;20032;-50
2021/03/05 04:22:24;;;;;;;5.57;3.15;;;;;;;-2.07;57.66;98670.50;5077332;28;20057;-51
2021/03/05 04:24:49;;;;;;;7.55;3.08;;;;;;;-2.50;57.70;98597.34;5084313;28;20024;-49
2021/03/05 04:27:15;;;;;;;8.55;2.90;;;;;;;-2.02;57.10;98686.88;5068505;28;20102;-46
2021/03/05 04:29:40;;;;;;;6.63;2.60;;;;;;;-2.07;57.45;98687.09;5074974;28;20036;-50
2021/03/05 04:32:06;;;;;;;5.15;2.60;;;;;;;-1.96;57.19;98693.63;5081722;28;20123;-48
2021/03/05 04:34:33;;;;;;;4.05;2.50;;;;;;;-2.07;57.19;98675.75;5073136;28;20059;-45
2021/03/05 04:36:58;;;;;;;5.78;2.60;;;;;;;-1.88;57.13;98700.19;5073762;28;20051;-48
2021/03/05 04:39:23;;;;;;;6.00;2.60;;;;;;;-1.77;57.23;98693.56;5074786;28;20514;-56
2021/03/05 04:41:49;;;;;;;5.20;2.72;;;;;;;-1.71;56.55;98702.94;5057217;28;20056;-50
2021/03/05 04:44:15;;;;;;;4.40;2.92;;;;;;;-1.63;56.91;98709.50;5072842;28;20036;-51
2021/03/05 04:46:41;;;;;;;7.43;2.60;;;;;;;-1.91;56.36;98645.25;5076350;28;20035;-50
2021/03/05 04:49:06;;;;;;;5.50;2.67;;;;;;;-1.53;56.42;98702.03;5073762;28;20039;-48
2021/03/05 04:51:32;;;;;;;8.98;2.72;;;;;;;-1.47;55.53;98695.63;5085171;28;20037;-51
2021/03/05 04:53:57;;;;;;;3.35;2.42;;;;;;;-1.32;56.20;98710.63;5063421;28;20032;-51
2021/03/05 04:56:23;;;;;;;3.95;2.83;;;;;;;-1.22;55.56;98699.66;5056865;28;20040;-49
2021/03/05 04:58:48;;;;;;;5.30;3.20;;;;;;;-1.23;55.21;98690.06;5056883;28;20037;-53
2021/03/05 05:01:14;;;;;;;8.13;3.50;;;;;;;-0.98;55.23;98707.22;5079114;28;20108;-49
2021/03/05 05:03:39;;;;;;;5.55;3.33;;;;;;;-0.83;54.52;98706.44;5066398;28;20047;-48
2021/03/05 05:06:05;;;;;;;5.22;2.88;;;;;;;-0.64;53.64;98706.31;5082559;28;20101;-51
2021/03/05 05:08:31;;;;;;;5.80;3.10;;;;;;;-0.43;53.63;98721.88;5066711;28;20032;-49
2021/03/05 05:10:57;;;;;;;10.43;3.35;;;;;;;-0.30;52.99;98720.31;5078264;28;20538;-53
2021/03/05 05:13:22;;;;;;;6.05;2.72;;;;;;;-0.16;52.54;98735.34;5064820;28;20032;-49
2021/03/05 05:15:48;;;;;;;6.80;2.97;;;;;;;-0.04;52.05;98735.59;5086697;28;20040;-46
2021/03/05 05:18:13;;;;;;;6.45;2.92;;;;;;;0.02;52.09;98737.91;5071712;28;20480;-49
2021/03/05 05:20:39;;;;;;;8.15;3.10;;;;;;;-0.30;51.64;98678.22;5076442;28;20415;-50
2021/03/05 05:23:04;;;;;;;6.40;2.80;;;;;;;0.21;51.46;98739.53;5065150;28;20079;-47
2021/03/05 05:25:30;;;;;;;5.30;2.80;;;;;;;0.19;51.04;98692.25;5069350;28;20499;-48
2021/03/05 05:27:55;;;;;;;8.85;3.47;;;;;;;0.76;50.15;98740.00;5067041;28;20484;-46
2021/03/05 05:30:21;;;;;;;6.65;3.00;;;;;;;2.47;48.06;98714.63;5070444;28;20036;-49
2021/03/05 05:32:47;;;;;;;4.25;2.92;;;;;;;5.03;42.53;98744.53;5062475;28;20113;-49
2021/03/05 05:35:12;;;;;;;6.40;3.13;;;;;;;6.55;39.54;98731.13;5083493;28;20547;-49
2021/03/05 05:37:38;;;;;;;6.70;3.17;;;;;;;7.41;38.24;98738.22;5067342;28;20472;-52
2021/03/05 05:40:04;;;;;;;6.22;3.05;;;;;;;7.60;37.44;98743.69;5076312;28;20416;-47
2021/03/05 05:42:30;;;;;;;4.78;2.78;;;;;;;8.58;36.09;98747.72;5066746;28;20040;-45
2021/03/05 05:44:56;;;;;;;5.82;2.63;;;;;;;9.64;34.13;98730.94;5054042;28;20032;-51
2021/03/05 05:47:22;;;;;;;4.68;3.05;;;;;;;9.50;33.64;98750.09;5056175;28;20033;-51
2021/03/05 05:49:48;;;;;;;3.92;2.92;;;;;;;9.15;34.07;98728.34;5079822;28;20079;-53
2021/03/05 05:52:20;;;;;;;5.43;3.17;;;;;;;8.82;33.46;98706.44;5064067;28;20412;-49
2021/03/05 05:54:47;;;;;;;5.18;2.90;;;;;;;8.57;34.51;98764.72;5061060;28;20127;-49
2021/03/05 05:57:13;;;;;;;5.32;3.03;;;;;;;8.22;34.83;98755.34;5062011;28;20135;-51
2021/03/05 05:59:39;;;;;;;5.22;3.33;;;;;;;7.69;35.58;98752.72;5073738;28;20044;-53
2021/03/05 06:02:05;;;;;;;4.88;2.97;;;;;;;7.63;35.44;98757.72;5078045;28;20101;-54
2021/03/05 06:04:31;;;;;;;4.38;3.20;;;;;;;7.66;35.53;98762.78;5071118;28;20499;-50
2021/03/05 06:06:57;;;;;;;4.75;2.95;;;;;;;6.93;35.36;98711.13;5071924;28;20035;-48
2021/03/05 06:09:23;;;;;;;7.15;3.25;;;;;;;6.75;36.21;98777.38;5074496;28;20116;-55
2021/03/05 06:11:48;;;;;;;6.88;2.67;;;;;;;6.18;37.52;98780.97;5073827;28;20040;-51
2021/03/05 06:14:14;;;;;;;6.68;2.72;;;;;;;5.55;38.37;98781.38;5061134;28;20443;-48
2021/03/05 06:16:53;;;;;;;6.70;2.97;;;;;;;4.71;40.00;98784.09;5062384;28;20032;-48
2021/03/05 06:19:21;;;;;;;5.65;3.03;;;;;;;3.97;41.11;98782.25;5075217;28;20059;-46
2021/03/05 06:21:47;;;;;;;6.22;2.90;;;;;;;3.54;42.03;98786.91;5081050;28;20483;-44
2021/03/05 06:24:17;;;;;;;11.15;3.20;;;;;;;3.13;42.43;98777.31;5073966;28;20035;-52
2021/03/05 06:26:47;;;;;;;5.80;2.88;;;;;;;3.04;42.53;98796.44;5053265;28;21017;-47
2021/03/05 06:29:13;;;;;;;4.72;2.70;;;;;;;2.99;42.82;98792.31;5072639;28;20070;-49
2021/03/05 06:31:39;;;;;;;6.00;2.58;;;;;;;2.87;43.12;98774.59;5083173;28;20177;-49
2021/03/05 06:34:04;;;;;;;11.40;3.20;;;;;;;3.06;42.65;98803.34;5062967;28;20024;-49
2021/03/05 06:36:30;;;;;;;7.05;2.83;;;;;;;3.07;42.61;98804.19;5062819;28;20469;-47
2021/03/05 06:38:57;;;;;;;9.38;2.78;;;;;;;3.07;42.45;98812.97;5071848;28;20037;-51
2021/03/05 06:41:28;;;;;;;5.30;2.70;;;;;;;3.22;41.95;98816.41;5074367;28;20033;-52
2021/03/05 06:43:59;;;;;;;7.30;2.33;;;;;;;3.69;41.15;98822.06;5070291;28;20166;-56
2021/03/05 06:46:33;;;;;;;7.05;3.13;;;;;;;3.71;40.17;98743.38;5074638;28;20037;-52
2021/03/05 06:49:01;;;;;;;7.13;2.90;;;;;;;4.15;39.44;98759.75;5071395;28;20468;-57
2021/03/05 06:51:27;;;;;;;4.63;2.90;;;;;;;4.70;39.24;98817.69;5082427;28;20120;-56
2021/03/05 06:54:13;;;;;;;5.63;2.50;;;;;;;5.13;38.08;98816.34;5060508;28;20032;-50
2021/03/05 06:56:41;;;;;;;6.57;2.10;;;;;;;5.83;36.88;98813.78;5056814;28;20054;-49
2021/03/05 06:59:09;;;;;;;4.30;1.75;;;;;;;6.41;35.25;98814.69;5062600;28;20047;-52
2021/03/05 07:01:47;;;;;;;4.13;2.40;;;;;;;6.70;34.82;98814.16;5068621;28;20182;-53
2021/03/05 07:04:16;;;;;;;2.40;1.60;;;;;;;6.97;34.43;98816.34;5062599;28;20380;-53
2021/03/05 07:06:42;;;;;;;2.10;1.80;;;;;;;7.83;33.66;98814.63;5062635;28;20082;-51
2021/03/05 07:09:09;;;;;;;4.00;1.63;;;;;;;10.33;30.00;98819.78;5068753;28;20111;-52
2021/03/05 07:11:40;;;;;;;2.22;1.50;;;;;;;12.85;26.36;98820.69;5081370;28;20504;-52
2021/03/05 07:14:09;;;;;;;4.13;1.67;;;;;;;15.04;24.23;98800.19;5073790;28;20502;-50
2021/03/05 07:16:46;;;;;;;3.78;1.80;;;;;;;17.09;21.99;98799.31;5073821;28;20055;-56
2021/03/05 07:19:16;;;;;;;3.72;1.48;;;;;;;17.43;20.67;98753.66;5058238;28;20024;-45
2021/03/05 07:21:45;;;;;;;1.77;1.27;;;;;;;17.21;21.05;98805.06;5069462;28;20077;-46
2021/03/05 07:24:12;;;;;;;1.83;1.50;;;;;;;16.44;21.71;98797.28;5062738;28;20052;-57
2021/03/05 07:26:43;;;;;;;6.05;1.83;;;;;;;16.84;20.94;98799.63;5061330;28;20077;-54
2021/03/05 07:29:17;;;;;;;2.83;1.30;;;;;;;19.69;18.61;98803.91;5064233;28;20497;-50
2021/03/05 07:31:44;;;;;;;2.38;1.25;;;;;;;20.17;17.57;98811.84;5075787;28;20493;-46
2021/03/05 07:34:18;;;;;;;2.78;1.33;;;;;;;19.92;17.69;98804.34;5069553;28;20115;-51
2021/03/05 07:36:49;;;;;;;3.50;1.60;;;;;;;21.25;16.25;98810.63;5070548;28;20094;-49
2021/03/05 07:39:22;;;;;;;7.43;1.83;;;;;;;23.01;14.72;98799.72;5067842;28;20496;-47
2021/03/05 07:41:51;;;;;;;2.72;2.00;;;;;;;24.60;13.62;98803.91;5059977;28;20064;-47
2021/03/05 07:44:19;;;;;;;1.75;1.60;;;;;;;25.88;12.69;98801.06;5071547;28;20032;-51
2021/03/05 07:46:45;;;;;;;2.70;1.70;;;;;;;26.80;11.69;98801.56;5063240;28;20041;-49
2021/03/05 07:49:12;;;;;;;2.25;1.75;;;;;;;27.04;11.13;98809.56;5065731;28;20085;-51
2021/03/05 07:51:40;;;;;;;2.13;1.75;;;;;;;27.13;10.65;98804.44;5059103;28;20063;-56
2021/03/05 07:54:05;;;;;;;3.08;2.33;;;;;;;26.40;10.17;98761.53;5058277;28;20037;-50
2021/03/05 07:56:38;;;;;;;1.92;1.75;;;;;;;25.75;10.45;98805.81;5058650;28;20515;-49
2021/03/05 07:59:03;;;;;;;2.22;1.63;;;;;;;24.29;11.66;98793.13;5063490;28;20036;-58
2021/03/05 08:01:50;;;;;;;3.03;1.85;;;;;;;22.12;13.33;98799.06;5080076;28;20053;-54
2021/03/05 08:04:16;;;;;;;4.18;1.80;;;;;;;19.18;14.85;98798.84;5057095;28;20099;-55
2021/03/05 08:06:41;;;;;;;2.22;1.85;;;;;;;16.75;16.73;98804.31;5066774;28;20511;-51
2021/03/05 08:09:13;;;;;;;3.55;2.20;;;;;;;14.78;18.33;98816.66;5064851;28;20049;-46
2021/03/05 08:11:39;;;;;;;3.55;2.10;;;;;;;13.00;20.13;98796.69;5079381;28;20055;-53
2021/03/05 08:14:23;;;;;;;2.25;1.95;;;;;;;11.65;21.75;98816.00;5064694;28;20044;-51
2021/03/05 08:16:49;;;;;;;2.97;1.33;;;;;;;10.61;22.17;98830.53;5072326;28;20124;-52
2021/03/05 08:19:16;;;;;;;2.63;1.75;;;;;;;10.07;23.06;98832.16;5064898;28;20044;-54
2021/03/05 08:21:50;;;;;;;3.97;1.92;;;;;;;9.80;23.52;98834.59;5074444;28;20035;-47
2021/03/05 08:24:23;;;;;;;2.60;1.60;;;;;;;9.30;24.03;98816.94;5081807;28;20522;-52
2021/03/05 08:27:29;;;;;;;2.35;1.50;;;;;;;9.12;24.70;98833.63;5066544;28;20040;-51
2021/03/05 08:30:03;;;;;;;2.92;1.70;;;;;;;8.43;24.44;98820.09;5076307;28;20051;-55
2021/03/05 08:32:34;;;;;;;4.32;1.60;;;;;;;8.01;24.75;98842.34;5058628;28;20804;-51
2021/03/05 08:35:00;;;;;;;4.30;2.03;;;;;;;7.49;25.57;98839.66;5055442;28;20205;-49
2021/03/05 08:37:31;;;;;;;5.57;2.05;;;;;;;6.78;26.26;98752.34;5057259;28;20045;-48
2021/03/05 08:40:16;;;;;;;5.78;2.20;;;;;;;6.87;27.62;98842.91;5060774;28;20043;-48
2021/03/05 08:42:57;;;;;;;7.55;2.05;;;;;;;6.18;27.49;98794.25;5062656;28;20713;-44
2021/03/05 08:45:30;;;;;;;7.88;2.22;;;;;;;6.29;28.19;98837.75;5068171;28;20090;-50
2021/03/05 08:48:03;;;;;;;4.97;2.13;;;;;;;6.09;28.32;98821.56;5071333;28;20568;-49
2021/03/05 08:50:31;;;;;;;4.05;1.83;;;;;;;6.20;28.52;98846.44;5067105;28;20499;-45
2021/03/05 08:53:02;;;;;;;4.15;1.75;;;;;;;6.05;28.57;98843.16;5058952;28;20040;-54
2021/03/05 08:55:33;;;;;;;3.17;1.88;;;;;;;5.92;28.53;98851.22;5064696;28;20076;-45
2021/03/05 08:57:59;;;;;;;6.30;1.60;;;;;;;6.14;28.55;98840.66;5058908;28;20066;-44
2021/03/05 09:00:30;;;;;;;8.48;1.63;;;;;;;6.42;27.64;98827.00;5057566;28;20075;-54
2021/03/05 09:03:08;;;;;;;6.75;1.80;;;;;;;6.76;27.31;98840.25;5057587;28;20091;-55
2021/03/05 09:05:38;;;;;;;6.22;1.90;;;;;;;6.91;27.01;98853.28;5060494;28;20054;-47
2021/03/05 09:08:04;;;;;;;1.85;1.48;;;;;;;7.01;26.56;98856.88;5068711;28;20495;-47
2021/03/05 09:10:46;;;;;;;5.18;1.42;;;;;;;7.08;26.13;98857.22;5070720;28;20464;-48
2021/03/05 09:13:13;;;;;;;8.07;2.97;;;;;;;7.07;26.05;98868.84;5058734;28;20056;-45
2021/03/05 09:15:45;;;;;;;7.07;1.90;;;;;;;7.09;25.26;98872.22;5063460;28;20040;-47
2021/03/05 09:18:13;;;;;;;2.55;1.40;;;;;;;6.86;25.68;98894.38;5058926;28;20043;-45
2021/03/05 09:20:45;;;;;;;2.70;1.02;;;;;;;6.44;27.13;98887.06;5054660;28;20044;-48
2021/03/05 09:23:18;;;;;;;5.30;1.58;;;;;;;5.67;30.29;98900.91;5059192;28;20401;-47
2021/03/05 09:25:54;;;;;;;2.05;1.45;;;;;;;4.53;31.66;98841.91;5062227;28;20068;-48
2021/03/05 09:28:27;;;;;;;3.75;1.30;;;;;;;4.23;34.11;98912.91;5064243;28;20036;-55
2021/03/05 09:30:55;;;;;;;2.97;1.25;;;;;;;3.29;36.86;98928.78;5058095;28;20037;-46
2021/03/05 09:33:28;;;;;;;4.55;1.40;;;;;;;2.60;40.88;98947.22;5063569;28;20052;-46
2021/03/05 09:35:59;;;;;;;3.00;1.20;;;;;;;1.94;41.50;98930.97;5064027;28;20020;-49
2021/03/05 09:38:25;;;;;;;4.03;2.08;;;;;;;1.33;41.50;98851.81;5060696;28;20071;-50
2021/03/05 09:40:51;;;;;;;5.95;1.90;;;;;;;1.85;42.00;98946.38;5061233;28;20116;-53
2021/03/05 09:43:17;;;;;;;4.18;1.50;;;;;;;1.68;42.27;98934.19;5054947;28;20056;-49
2021/03/05 09:45:47;;;;;;;3.10;1.05;;;;;;;1.43;43.34;98924.19;5055645;28;20037;-47
2021/03/05 09:48:28;;;;;;;1.85;0.82;;;;;;;1.41;45.47;98897.91;5063486;28;20557;-49
2021/03/05 09:51:12;;;;;;;2.17;0.90;;;;;;;2.06;44.33;98955.78;5041826;28;20066;-59
2021/03/05 09:53:39;;;;;;;1.60;0.80;;;;;;;2.47;42.49;98917.25;5060099;28;20040;-50
2021/03/05 09:56:08;;;;;;;1.73;0.85;;;;;;;3.21;41.95;98946.97;5059013;28;20032;-54
2021/03/05 09:58:35;;;;;;;1.80;1.08;;;;;;;3.56;40.55;98942.97;5063499;28;20090;-53
2021/03/05 10:01:03;;;;;;;1.63;1.00;;;;;;;3.59;40.46;98932.19;5057501;28;20080;-48
2021/03/05 10:03:29;;;;;;;2.03;1.08;;;;;;;3.59;39.86;98933.00;5064033;28;20075;-49
2021/03/05 10:05:55;;;;;;;1.35;0.70;;;;;;;3.56;39.47;98930.56;5065730;28;20476;-47
2021/03/05 10:08:26;;;;;;;2.15;1.00;;;;;;;3.58;40.99;98936.59;5054818;28;20079;-47
2021/03/05 10:10:58;;;;;;;3.15;0.90;;;;;;;3.63;41.45;98933.66;5056057;28;20040;-50
2021/03/05 10:13:55;;;;;;;1.27;0.75;;;;;;;3.72;41.59;98932.22;5059505;28;20122;-63
2021/03/05 10:16:38;;;;;;;2.38;1.02;;;;;;;3.77;42.42;98921.31;5060429;28;20175;-48
2021/03/05 10:19:12;;;;;;;2.42;1.02;;;;;;;4.13;40.56;98922.41;5063041;28;20060;-47
2021/03/05 10:21:46;;;;;;;2.45;1.60;;;;;;;4.55;39.75;98915.09;5067394;28;20033;-52
2021/03/05 10:24:14;;;;;;;2.83;1.52;;;;;;;4.85;38.66;98926.28;5073904;28;20040;-43
2021/03/05 10:27:23;;;;;;;2.80;1.60;;;;;;;5.03;38.94;98935.56;5067865;28;20040;-51
2021/03/05 10:29:39;;;;;;;1.98;1.27;;;;;;;5.32;38.91;98926.44;5082829;28;20044;-48
2021/03/05 10:32:22;;;;;;;2.33;1.35;;;;;;;5.46;38.51;98936.03;5064855;28;20040;-55
2021/03/05 10:34:50;;;;;;;1.73;1.40;;;;;;;5.36;37.42;98930.56;5059721;28;20036;-50
2021/03/05 10:37:16;;;;;;;2.97;1.52;;;;;;;5.16;38.09;98934.69;5064486;28;20040;-52
2021/03/05 10:39:44;;;;;;;2.28;1.80;;;;;;;4.96;38.41;98934.31;5074990;28;20045;-44
2021/03/05 10:42:16;;;;;;;3.22;1.48;;;;;;;4.86;38.07;98938.59;5062297;28;20400;-51
2021/03/05 10:44:43;;;;;;;3.10;1.50;;;;;;;4.68;38.01;98936.28;5066309;28;20036;-48
2021/03/05 10:47:11;;;;;;;5.70;1.80;;;;;;;4.57;37.77;98938.81;5063260;28;20405;-49
2021/03/05 10:49:38;;;;;;;3.10;1.48;;;;;;;4.68;37.79;98940.72;5071535;28;20484;-48
2021/03/05 10:52:05;;;;;;;5.95;1.80;;;;;;;4.93;36.66;98933.69;5056059;28;20079;-51
2021/03/05 10:54:30;;;;;;;2.58;1.45;;;;;;;5.30;36.21;98934.53;5062921;28;20488;-54
2021/03/05 10:56:56;;;;;;;2.65;1.27;;;;;;;5.40;34.61;98907.31;5061822;28;20041;-50
2021/03/05 10:59:22;;;;;;;3.10;1.10;;;;;;;5.69;33.76;98931.69;5051199;28;20040;-49
2021/03/05 11:01:52;;;;;;;2.10;1.20;;;;;;;5.73;32.44;98958.84;5062093;28;20076;-52
2021/03/05 11:04:18;;;;;;;2.22;1.35;;;;;;;5.50;33.92;98956.09;5064714;28;20131;-52
2021/03/05 11:06:43;;;;;;;3.20;1.35;;;;;;;5.27;34.91;98974.56;5058477;28;20043;-46
2021/03/05 11:09:10;;;;;;;2.15;1.23;;;;;;;5.13;35.35;98961.44;5065376;28;20043;-47
2021/03/05 11:11:35;;;;;;;5.88;1.80;;;;;;;4.88;36.03;98974.66;5059021;28;20098;-48
2021/03/05 11:14:01;;;;;;;2.88;1.55;;;;;;;4.40;37.21;98967.38;5059782;28;20485;-50
2021/03/05 11:16:27;;;;;;;2.70;1.80;;;;;;;3.91;38.23;98983.94;5069258;28;20025;-52
2021/03/05 11:18:53;;;;;;;2.70;1.55;;;;;;;3.47;39.33;98992.06;5062395;28;20059;-56
2021/03/05 11:21:19;;;;;;;4.20;1.73;;;;;;;3.19;39.86;98988.53;5065924;28;20079;-52
2021/03/05 11:23:45;;;;;;;3.10;1.90;;;;;;;2.83;40.74;98974.03;5072826;28;20036;-55
2021/03/05 11:26:12;;;;;;;3.63;1.90;;;;;;;2.85;40.81;98990.66;5068837;28;20091;-52
2021/03/05 11:28:39;;;;;;;5.28;2.22;;;;;;;2.85;40.85;99012.66;5065652;28;20029;-55
2021/03/05 11:31:04;;;;;;;2.95;2.03;;;;;;;2.79;40.59;99015.69;5057453;28;20455;-53
2021/03/05 11:33:30;;;;;;;3.50;2.20;;;;;;;2.54;40.40;98987.25;5063977;28;20078;-56
2021/03/05 11:35:56;;;;;;;2.90;1.90;;;;;;;2.66;40.81;99010.31;5069554;28;20063;-58
2021/03/05 11:38:21;;;;;;;2.58;1.65;;;;;;;2.72;40.44;99017.84;5063267;28;20033;-49
2021/03/05 11:40:47;;;;;;;1.58;1.30;;;;;;;2.52;40.32;99005.00;5072738;28;20513;-53
2021/03/05 11:43:12;;;;;;;2.75;1.80;;;;;;;2.63;39.81;99007.81;5066617;28;20041;-48